Time;durP1;ratioP1;P1;durP2;ratioP2;P2;SDS_P1;SDS_P2;PMS_P1;PMS_P2;Temp;Humidity;BMP_temperature;BMP_pressure;BME280_temperature;BME280_humidity;BME280_pressure;Samples;Min_cycle;Max_cycle;Signal;HPM_P1;HPM_P2
2023/04/22 00:01:11;;;;;;;6.78;4.95;;;;;;;12.10;42.23;100461.84;5089938;27;20319;-71
2023/04/22 00:03:41;;;;;;;7.97;5.05;;;;;;;12.10;42.11;100465.44;5096020;27;20472;-70
2023/04/22 00:06:09;;;;;;;7.55;5.13;;;;;;;12.08;42.37;100450.16;5097427;27;20058;-70
2023/04/22 00:08:37;;;;;;;6.65;4.75;;;;;;;12.07;42.75;100454.75;5096681;27;20035;-70
2023/04/22 00:11:05;;;;;;;7.03;5.10;;;;;;;12.05;42.80;100456.78;5068616;28;20072;-71
2023/04/22 00:13:33;;;;;;;7.03;4.60;;;;;;;12.03;42.77;100447.88;5071905;27;20056;-71
2023/04/22 00:16:01;;;;;;;7.68;4.75;;;;;;;12.02;42.92;100450.75;5092999;27;20047;-71
2023/04/22 00:18:29;;;;;;;6.85;4.60;;;;;;;12.00;42.44;100453.66;5091605;27;20122;-71
2023/04/22 00:20:58;;;;;;;7.72;4.80;;;;;;;12.01;42.65;100452.66;5098106;27;20133;-71
2023/04/22 00:23:26;;;;;;;6.00;4.50;;;;;;;11.96;42.42;100441.28;5100003;27;20066;-71
2023/04/22 00:25:54;;;;;;;6.25;4.30;;;;;;;11.96;43.06;100445.91;5099409;27;20055;-71
2023/04/22 00:28:21;;;;;;;6.90;4.38;;;;;;;11.95;42.58;100445.03;5105926;27;20271;-71
2023/04/22 00:30:49;;;;;;;7.43;4.40;;;;;;;11.94;43.10;100448.78;5089103;27;20047;-71
2023/04/22 00:33:17;;;;;;;6.32;4.20;;;;;;;11.94;42.99;100439.69;5107323;28;20032;-71
2023/04/22 00:35:46;;;;;;;6.68;4.43;;;;;;;11.94;43.20;100450.69;5101619;28;20143;-71
2023/04/22 00:38:15;;;;;;;6.38;4.57;;;;;;;11.92;43.30;100433.50;5081751;28;20036;-71
2023/04/22 00:40:43;;;;;;;5.63;4.30;;;;;;;11.89;43.28;100437.41;5102409;28;20070;-71
2023/04/22 00:43:13;;;;;;;6.07;4.20;;;;;;;11.88;43.28;100435.69;5103908;27;20040;-70
2023/04/22 00:45:43;;;;;;;6.18;3.80;;;;;;;11.88;43.29;100443.94;5105684;28;20052;-71
2023/04/22 00:48:12;;;;;;;5.30;3.78;;;;;;;11.88;43.16;100440.31;5105691;28;20512;-71
2023/04/22 00:50:40;;;;;;;5.63;3.92;;;;;;;11.85;42.87;100440.63;5085283;28;20051;-70
2023/04/22 00:53:08;;;;;;;5.32;3.70;;;;;;;11.84;43.37;100442.50;5088033;28;20044;-70
2023/04/22 00:55:38;;;;;;;6.53;4.00;;;;;;;11.85;43.15;100444.22;5098520;28;20107;-71
2023/04/22 00:58:06;;;;;;;5.68;3.95;;;;;;;11.82;43.29;100444.53;5084818;28;20130;-71
2023/04/22 01:00:34;;;;;;;5.35;3.88;;;;;;;11.81;42.94;100444.66;5099104;28;20047;-71
2023/04/22 01:03:03;;;;;;;5.32;3.50;;;;;;;11.80;43.59;100443.81;5105727;28;20046;-71
2023/04/22 01:05:31;;;;;;;5.70;3.85;;;;;;;11.80;43.67;100442.97;5100877;28;20783;-71
2023/04/22 01:08:00;;;;;;;5.45;3.58;;;;;;;11.79;43.60;100436.63;5086210;28;20047;-71
2023/04/22 01:10:29;;;;;;;5.30;3.72;;;;;;;11.79;43.25;100435.75;5084796;28;20134;-71
2023/04/22 01:12:58;;;;;;;5.47;3.55;;;;;;;11.80;43.76;100430.09;5104474;28;20039;-71
2023/04/22 01:15:27;;;;;;;6.35;4.00;;;;;;;11.79;43.45;100430.28;5094546;27;20047;-70
2023/04/22 01:17:56;;;;;;;7.13;3.95;;;;;;;11.78;43.15;100428.53;5092583;27;20130;-71
2023/04/22 01:20:26;;;;;;;4.85;3.50;;;;;;;11.78;43.47;100439.50;5088183;28;20448;-71
2023/04/22 01:22:56;;;;;;;5.10;3.50;;;;;;;11.76;43.61;100442.41;5088645;27;20137;-71
2023/04/22 01:25:26;;;;;;;4.72;3.15;;;;;;;11.77;43.19;100433.16;5089234;27;20461;-71
2023/04/22 01:27:55;;;;;;;5.00;3.42;;;;;;;11.73;43.08;100431.72;5101138;27;21034;-71
2023/04/22 01:30:23;;;;;;;6.25;3.42;;;;;;;11.72;43.46;100436.34;5095673;27;20053;-71
2023/04/22 01:32:51;;;;;;;4.80;3.25;;;;;;;11.73;43.15;100437.19;5098529;28;20075;-71
2023/04/22 01:35:20;;;;;;;5.05;3.22;;;;;;;11.70;43.56;100432.91;5077178;27;20065;-71
2023/04/22 01:37:48;;;;;;;5.00;3.67;;;;;;;11.70;43.60;100432.91;5072787;28;20055;-71
2023/04/22 01:40:18;;;;;;;5.05;3.40;;;;;;;11.70;43.26;100434.78;5070092;28;20512;-71
2023/04/22 01:42:48;;;;;;;5.00;3.40;;;;;;;11.70;43.83;100435.66;5099971;27;20143;-71
2023/04/22 01:45:17;;;;;;;6.05;3.60;;;;;;;11.68;43.65;100439.56;5086709;27;20364;-71
2023/04/22 01:47:45;;;;;;;5.10;3.47;;;;;;;11.67;43.33;100432.34;5096714;28;20048;-71
2023/04/22 01:50:13;;;;;;;5.32;3.28;;;;;;;11.66;43.24;100436.94;5091378;27;20657;-71
2023/04/22 01:52:41;;;;;;;4.82;3.42;;;;;;;11.65;43.72;100432.47;5091210;27;20039;-71
2023/04/22 01:55:10;;;;;;;4.78;3.13;;;;;;;11.66;43.75;100433.34;5088260;28;20032;-71
2023/04/22 01:57:37;;;;;;;4.88;3.40;;;;;;;11.64;43.46;100432.63;5080932;28;20144;-71
2023/04/22 02:00:09;;;;;;;5.20;3.13;;;;;;;11.64;43.72;100440.84;5105578;27;20040;-71
2023/04/22 02:02:39;;;;;;;5.20;3.13;;;;;;;11.61;43.61;100431.06;5103298;28;20097;-71
2023/04/22 02:05:08;;;;;;;5.28;3.25;;;;;;;11.61;43.30;100435.69;5091902;28;20058;-71
2023/04/22 02:07:36;;;;;;;5.18;2.95;;;;;;;11.59;43.17;100434.94;5079696;28;20403;-71
2023/04/22 02:10:05;;;;;;;3.92;2.75;;;;;;;11.58;43.56;100430.47;5096970;22;20048;-70
2023/04/22 02:12:33;;;;;;;4.97;3.00;;;;;;;11.56;43.31;100430.63;5066436;28;20072;-70
2023/04/22 02:15:01;;;;;;;4.88;3.20;;;;;;;11.55;43.71;100428.06;5039132;28;20068;-70
2023/04/22 02:17:30;;;;;;;4.47;2.70;;;;;;;11.55;43.94;100430.78;5077633;28;20056;-70
2023/04/22 02:19:58;;;;;;;5.05;2.88;;;;;;;11.53;43.63;100425.47;5075254;28;20074;-70
2023/04/22 02:22:28;;;;;;;5.35;3.05;;;;;;;11.53;43.45;100427.34;5070034;28;20363;-70
2023/04/22 02:24:56;;;;;;;3.90;2.65;;;;;;;11.52;43.47;100420.13;5081781;28;20090;-70
2023/04/22 02:27:24;;;;;;;4.40;3.08;;;;;;;11.50;43.46;100420.25;5077089;28;20415;-71
2023/04/22 02:29:52;;;;;;;3.88;2.85;;;;;;;11.50;43.87;100425.75;5076018;28;20051;-70
2023/04/22 02:32:19;;;;;;;4.22;3.10;;;;;;;11.50;43.43;100416.66;5079240;28;20052;-70
2023/04/22 02:34:49;;;;;;;4.28;2.78;;;;;;;11.50;43.70;100420.25;5088630;28;20083;-70
2023/04/22 02:37:17;;;;;;;4.88;3.05;;;;;;;11.49;43.52;100414.94;5084274;28;20040;-70
2023/04/22 02:39:45;;;;;;;4.60;3.10;;;;;;;11.49;44.07;100415.78;5072237;28;21834;-70
2023/04/22 02:42:13;;;;;;;4.53;3.30;;;;;;;11.49;43.51;100410.31;5081393;28;20608;-71
2023/04/22 02:44:41;;;;;;;5.32;2.90;;;;;;;11.48;43.75;100414.06;5073853;28;20048;-70
2023/04/22 02:47:12;;;;;;;5.07;3.00;;;;;;;11.51;44.28;100411.03;5077229;28;20048;-70
2023/04/22 02:49:40;;;;;;;4.45;2.92;;;;;;;11.49;44.09;100407.56;5071077;28;20193;-70
2023/04/22 02:52:10;;;;;;;4.57;3.42;;;;;;;11.51;43.78;100401.94;5076906;28;20055;-70
2023/04/22 02:54:38;;;;;;;4.88;3.20;;;;;;;11.50;43.83;100400.22;5080015;28;20118;-70
2023/04/22 02:57:06;;;;;;;4.55;3.10;;;;;;;11.49;43.65;100402.09;5077504;28;20043;-70
2023/04/22 02:59:35;;;;;;;4.35;2.90;;;;;;;11.49;44.15;100398.50;5079124;28;21054;-70
2023/04/22 03:02:03;;;;;;;4.60;3.30;;;;;;;11.48;44.09;100394.03;5072558;28;20048;-70
2023/04/22 03:04:48;;;;;;;4.53;3.13;;;;;;;11.46;44.12;100393.34;5077034;28;20519;-70
2023/04/22 03:07:17;;;;;;;5.25;3.08;;;;;;;11.48;44.22;100394.88;5098330;28;20048;-70
2023/04/22 03:09:45;;;;;;;4.88;3.28;;;;;;;11.47;43.87;100386.84;5077032;28;20578;-70
2023/04/22 03:12:13;;;;;;;4.38;2.90;;;;;;;11.46;43.67;100385.09;5075419;28;20069;-70
2023/04/22 03:14:41;;;;;;;4.88;2.90;;;;;;;11.45;43.86;100372.41;5078324;28;20048;-70
2023/04/22 03:17:09;;;;;;;3.70;2.60;;;;;;;11.45;43.66;100381.50;5073288;28;20537;-71
2023/04/22 03:19:37;;;;;;;4.57;2.90;;;;;;;11.45;43.94;100387.00;5072761;28;20046;-70
2023/04/22 03:22:06;;;;;;;4.97;2.92;;;;;;;11.45;44.06;100380.63;5071191;28;20078;-70
2023/04/22 03:24:35;;;;;;;3.92;2.65;;;;;;;11.45;44.29;100376.03;5077450;28;20033;-75
2023/04/22 03:27:06;;;;;;;4.57;3.08;;;;;;;11.43;44.00;100378.03;5077851;28;20067;-70
2023/04/22 03:29:34;;;;;;;5.57;3.10;;;;;;;11.45;43.90;100381.50;5082321;28;20032;-69
2023/04/22 03:32:02;;;;;;;3.88;2.80;;;;;;;11.46;43.83;100372.28;5077708;28;20040;-70
2023/04/22 03:34:30;;;;;;;4.85;2.95;;;;;;;11.46;43.83;100368.66;5077822;28;20051;-70
2023/04/22 03:36:58;;;;;;;4.47;2.88;;;;;;;11.46;43.80;100361.31;5090821;28;20051;-71
2023/04/22 03:39:26;;;;;;;4.93;3.10;;;;;;;11.48;44.10;100358.41;5076957;28;20059;-71
2023/04/22 03:41:56;;;;;;;3.83;2.60;;;;;;;11.48;43.92;100356.50;5074685;28;20040;-71
2023/04/22 03:44:24;;;;;;;4.35;2.97;;;;;;;11.48;44.21;100356.50;5079708;28;20165;-70
2023/04/22 03:46:52;;;;;;;4.18;2.60;;;;;;;11.48;44.35;100352.91;5071560;28;20082;-71
2023/04/22 03:49:24;;;;;;;4.50;2.80;;;;;;;11.47;44.38;100357.53;5092920;27;20048;-70
2023/04/22 03:51:54;;;;;;;4.45;2.83;;;;;;;11.49;43.89;100350.03;5099243;27;20380;-71
2023/04/22 03:54:25;;;;;;;3.90;2.80;;;;;;;11.50;44.07;100359.13;5073693;28;20098;-71
2023/04/22 03:56:53;;;;;;;3.90;2.72;;;;;;;11.51;44.43;100364.44;5078946;28;20139;-70
2023/04/22 03:59:24;;;;;;;4.22;2.60;;;;;;;11.53;44.54;100356.06;5081056;28;20078;-70
2023/04/22 04:01:52;;;;;;;6.53;2.72;;;;;;;11.53;44.59;100356.94;5067582;28;20048;-71
2023/04/22 04:04:25;;;;;;;4.25;2.90;;;;;;;11.51;44.42;100356.22;5072254;28;20033;-71
2023/04/22 04:07:00;;;;;;;4.32;2.90;;;;;;;11.55;43.97;100365.03;5069860;28;20522;-70
2023/04/22 04:09:28;;;;;;;3.75;2.75;;;;;;;11.57;44.02;100354.75;5074958;28;20121;-70
2023/04/22 04:11:56;;;;;;;4.63;3.20;;;;;;;11.56;44.47;100342.91;5087952;27;20056;-70
2023/04/22 04:14:29;;;;;;;4.63;2.92;;;;;;;11.58;44.47;100340.88;5077734;28;20048;-71
2023/04/22 04:16:57;;;;;;;4.40;3.10;;;;;;;11.57;44.23;100338.28;5073098;28;20166;-70
2023/04/22 04:19:28;;;;;;;4.78;2.80;;;;;;;11.55;43.84;100343.97;5083712;28;20150;-70
2023/04/22 04:21:56;;;;;;;4.07;2.65;;;;;;;11.57;44.39;100335.56;5071166;28;20110;-70
2023/04/22 04:24:27;;;;;;;5.18;3.08;;;;;;;11.54;43.88;100328.53;5085635;27;20048;-70
2023/04/22 04:27:01;;;;;;;4.72;2.75;;;;;;;11.54;43.92;100322.19;5073737;28;20050;-70
2023/04/22 04:29:38;;;;;;;4.57;2.75;;;;;;;11.56;44.46;100325.59;5075007;28;20077;-70
2023/04/22 04:32:13;;;;;;;5.07;2.70;;;;;;;11.53;44.40;100329.53;5077949;28;20036;-70
2023/04/22 04:34:42;;;;;;;4.05;2.63;;;;;;;11.52;44.02;100327.81;5072438;28;20054;-70
2023/04/22 04:37:11;;;;;;;3.65;2.53;;;;;;;11.51;44.38;100330.69;5070373;28;20475;-69
2023/04/22 04:39:58;;;;;;;5.47;3.10;;;;;;;11.50;43.96;100327.09;5073312;28;20052;-70
2023/04/22 04:42:33;;;;;;;4.25;2.60;;;;;;;11.50;44.41;100331.72;5078485;28;20540;-69
2023/04/22 04:45:08;;;;;;;3.42;2.40;;;;;;;11.49;44.65;100328.09;5075218;28;20050;-69
2023/04/22 04:47:36;;;;;;;3.72;2.67;;;;;;;11.50;44.13;100334.44;5080970;28;20434;-69
2023/04/22 04:50:14;;;;;;;4.30;2.85;;;;;;;11.51;44.43;100327.97;5079541;28;20036;-69
2023/04/22 04:52:43;;;;;;;4.57;2.97;;;;;;;11.53;44.14;100328.69;5075156;28;20449;-70
2023/04/22 04:55:11;;;;;;;4.18;2.75;;;;;;;11.54;44.71;100324.91;5072932;28;20048;-70
2023/04/22 04:57:39;;;;;;;3.88;2.45;;;;;;;11.56;44.64;100322.88;5072945;28;20487;-70
2023/04/22 05:00:10;;;;;;;4.85;2.80;;;;;;;11.57;44.26;100311.75;5089634;27;20297;-70
2023/04/22 05:02:38;;;;;;;4.03;2.45;;;;;;;11.56;44.18;100309.16;5070125;28;20048;-70
2023/04/22 05:05:07;;;;;;;3.47;2.50;;;;;;;11.57;44.16;100311.75;5080992;28;20499;-71
2023/04/22 05:07:36;;;;;;;3.58;2.38;;;;;;;11.58;44.18;100309.88;5076600;28;20055;-70
2023/04/22 05:10:07;;;;;;;3.97;2.70;;;;;;;11.57;44.11;100314.50;5078225;28;20089;-70
2023/04/22 05:12:36;;;;;;;4.50;2.75;;;;;;;11.57;44.31;100309.00;5073051;28;20056;-70
2023/04/22 05:15:07;;;;;;;4.82;2.80;;;;;;;11.58;44.43;100305.25;5074023;28;20131;-70
2023/04/22 05:17:38;;;;;;;4.40;2.70;;;;;;;11.58;44.23;100299.78;5086788;28;20055;-70
2023/04/22 05:20:07;;;;;;;3.83;2.50;;;;;;;11.59;44.19;100298.75;5074433;28;20054;-70
2023/04/22 05:22:36;;;;;;;4.15;2.60;;;;;;;11.59;44.17;100308.88;5076326;28;20063;-70
2023/04/22 05:25:05;;;;;;;3.50;2.25;;;;;;;11.59;44.73;100320.69;5078806;28;20032;-72
2023/04/22 05:27:33;;;;;;;3.35;2.33;;;;;;;11.60;44.78;100318.81;5078627;28;20040;-69
2023/04/22 05:30:03;;;;;;;3.50;2.40;;;;;;;11.61;44.94;100317.84;5072402;28;20044;-69
2023/04/22 05:32:33;;;;;;;4.57;2.58;;;;;;;11.62;45.01;100325.03;5080601;28;20502;-70
2023/04/22 05:35:02;;;;;;;5.03;2.35;;;;;;;11.67;44.81;100319.94;5075114;28;20068;-70
2023/04/22 05:37:31;;;;;;;3.60;2.50;;;;;;;11.66;44.69;100320.97;5078281;28;20127;-70
2023/04/22 05:39:59;;;;;;;4.30;2.60;;;;;;;11.68;44.66;100318.94;5071696;28;20155;-72
2023/04/22 05:42:27;;;;;;;3.75;2.58;;;;;;;11.70;44.46;100320.53;5070514;28;20171;-72
2023/04/22 05:44:55;;;;;;;3.50;2.33;;;;;;;11.72;44.55;100323.06;5070308;28;20048;-72
2023/04/22 05:47:23;;;;;;;4.50;2.60;;;;;;;11.73;44.73;100320.19;5081259;28;20040;-73
2023/04/22 05:49:51;;;;;;;3.33;2.10;;;;;;;11.76;44.89;100326.38;5081562;28;20075;-73
2023/04/22 05:52:30;;;;;;;3.38;2.20;;;;;;;11.78;45.08;100319.75;5078567;28;20575;-73
2023/04/22 05:55:06;;;;;;;4.47;2.28;;;;;;;11.78;44.74;100327.97;5072747;28;20040;-73
2023/04/22 05:57:34;;;;;;;3.97;2.35;;;;;;;11.80;45.17;100322.34;5071680;28;20139;-72
2023/04/22 06:00:06;;;;;;;3.45;2.22;;;;;;;11.83;45.25;100324.75;5083701;28;20036;-73
2023/04/22 06:02:39;;;;;;;3.83;2.30;;;;;;;11.85;45.20;100325.47;5077154;28;20383;-72
2023/04/22 06:05:08;;;;;;;4.25;2.38;;;;;;;11.89;44.81;100322.22;5093912;27;20056;-72
2023/04/22 06:07:39;;;;;;;3.72;2.40;;;;;;;11.94;44.75;100321.78;5082781;28;20044;-73
2023/04/22 06:10:09;;;;;;;3.50;2.33;;;;;;;11.98;44.73;100328.66;5084433;28;20453;-73
2023/04/22 06:12:37;;;;;;;4.20;2.40;;;;;;;11.99;44.69;100328.50;5070135;28;20378;-73
2023/04/22 06:15:06;;;;;;;3.50;2.15;;;;;;;12.03;44.93;100324.44;5084565;28;20432;-73
2023/04/22 06:17:34;;;;;;;3.10;2.08;;;;;;;12.06;44.69;100326.88;5080660;28;20043;-73
2023/04/22 06:20:02;;;;;;;3.53;2.15;;;;;;;12.09;45.17;100325.69;5082125;28;20040;-72
2023/04/22 06:22:31;;;;;;;4.13;2.20;;;;;;;12.11;44.98;100321.78;5078897;28;20048;-72
2023/04/22 06:25:00;;;;;;;3.90;2.20;;;;;;;12.18;44.65;100323.91;5082541;28;20056;-72
2023/04/22 06:27:28;;;;;;;3.17;2.10;;;;;;;12.19;44.96;100326.47;5073802;28;20519;-72
2023/04/22 06:29:56;;;;;;;3.75;2.40;;;;;;;12.23;45.16;100318.78;5074742;28;20051;-72
2023/04/22 06:32:24;;;;;;;6.65;2.60;;;;;;;12.29;44.78;100309.94;5074772;28;20335;-72
2023/04/22 06:34:52;;;;;;;3.97;2.17;;;;;;;12.33;45.01;100312.19;5085665;28;20071;-72
2023/04/22 06:37:20;;;;;;;3.72;2.17;;;;;;;12.39;45.35;100313.44;5088806;28;20044;-72
2023/04/22 06:39:48;;;;;;;3.58;2.40;;;;;;;12.46;45.27;100314.50;5079557;28;20508;-72
2023/04/22 06:42:37;;;;;;;3.47;2.10;;;;;;;12.55;45.41;100302.56;5079059;27;20077;-72
2023/04/22 06:45:24;;;;;;;3.60;2.30;;;;;;;12.63;45.25;100310.03;5087983;28;20042;-73
2023/04/22 06:48:09;;;;;;;2.72;2.03;;;;;;;12.73;45.30;100308.06;5083607;28;20036;-73
2023/04/22 06:50:58;;;;;;;3.50;2.25;;;;;;;12.85;45.79;100310.38;5080352;28;20415;-72
2023/04/22 06:53:26;;;;;;;2.92;1.90;;;;;;;13.00;45.68;100309.75;5081198;28;20122;-74
2023/04/22 06:55:54;;;;;;;2.80;1.88;;;;;;;13.15;45.60;100308.13;5073789;28;20063;-72
2023/04/22 06:58:23;;;;;;;3.92;2.20;;;;;;;13.34;45.71;100313.38;5087453;28;20050;-74
2023/04/22 07:00:51;;;;;;;2.97;1.83;;;;;;;13.50;45.87;100310.69;5088644;27;20047;-72
2023/04/22 07:03:19;;;;;;;3.88;2.25;;;;;;;13.67;45.48;100308.88;5081708;28;20479;-72
2023/04/22 07:05:58;;;;;;;4.03;2.10;;;;;;;13.86;45.06;100313.22;5073599;28;20079;-73
2023/04/22 07:08:26;;;;;;;2.47;1.63;;;;;;;14.07;44.81;100309.97;5074827;28;20116;-73
2023/04/22 07:10:56;;;;;;;2.90;1.83;;;;;;;14.24;44.07;100307.06;5097314;27;20056;-73
2023/04/22 07:13:35;;;;;;;2.65;1.77;;;;;;;14.44;43.50;100310.31;5082016;28;20055;-73
2023/04/22 07:16:03;;;;;;;4.45;2.13;;;;;;;14.58;43.60;100304.16;5078597;28;20234;-72
2023/04/22 07:18:31;;;;;;;3.70;1.95;;;;;;;14.72;42.92;100297.94;5076019;28;20403;-73
2023/04/22 07:20:59;;;;;;;3.22;1.77;;;;;;;14.84;42.27;100294.81;5079347;28;20051;-72
2023/04/22 07:23:27;;;;;;;3.05;1.88;;;;;;;14.92;42.19;100297.56;5072036;28;20506;-74
2023/04/22 07:25:55;;;;;;;3.33;2.00;;;;;;;14.97;41.73;100290.47;5072330;28;20067;-73
2023/04/22 07:28:23;;;;;;;2.90;1.80;;;;;;;15.04;42.14;100294.22;5099895;27;20045;-73
2023/04/22 07:30:54;;;;;;;3.30;2.15;;;;;;;15.13;41.03;100290.41;5080477;28;20082;-73
2023/04/22 07:33:22;;;;;;;3.05;1.95;;;;;;;15.18;41.66;100289.88;5086944;28;20036;-73
2023/04/22 07:35:50;;;;;;;3.65;1.80;;;;;;;15.26;41.63;100280.72;5089055;28;20067;-72
2023/04/22 07:38:18;;;;;;;3.40;1.90;;;;;;;15.35;41.88;100290.69;5082191;28;20051;-73
2023/04/22 07:40:46;;;;;;;2.80;1.77;;;;;;;15.44;41.88;100279.44;5080407;28;20067;-72
2023/04/22 07:43:13;;;;;;;3.58;2.10;;;;;;;15.54;41.42;100276.47;5086009;28;20036;-71
2023/04/22 07:45:41;;;;;;;2.85;2.00;;;;;;;15.65;41.36;100284.34;5081563;28;20044;-71
2023/04/22 07:48:11;;;;;;;2.92;1.73;;;;;;;15.78;41.01;100281.84;5081065;28;20041;-71
2023/04/22 07:50:39;;;;;;;3.35;1.90;;;;;;;15.87;40.83;100274.38;5072955;28;20045;-72
2023/04/22 07:53:09;;;;;;;3.40;2.00;;;;;;;15.97;40.52;100269.47;5074675;28;20036;-71
2023/04/22 07:55:37;;;;;;;3.45;2.15;;;;;;;16.07;40.33;100270.09;5078450;28;20495;-72
2023/04/22 07:58:05;;;;;;;2.90;1.85;;;;;;;16.17;40.41;100256.03;5077709;28;20085;-72
2023/04/22 08:00:34;;;;;;;3.50;2.00;;;;;;;16.26;40.32;100258.56;5080575;28;20078;-71
2023/04/22 08:03:02;;;;;;;3.58;1.90;;;;;;;16.36;40.04;100258.31;5077719;28;20051;-72
2023/04/22 08:05:32;;;;;;;2.67;1.83;;;;;;;16.47;40.00;100263.38;5077580;28;20452;-71
2023/04/22 08:08:00;;;;;;;3.63;2.10;;;;;;;16.56;39.53;100278.84;5076466;28;20109;-71
2023/04/22 08:10:28;;;;;;;2.80;2.08;;;;;;;16.64;39.47;100262.19;5078788;28;20068;-71
2023/04/22 08:12:56;;;;;;;3.42;1.75;;;;;;;16.74;39.19;100255.53;5072536;28;20070;-71
2023/04/22 08:15:24;;;;;;;3.78;2.03;;;;;;;16.82;38.97;100260.97;5102111;28;20031;-71
2023/04/22 08:17:52;;;;;;;3.00;1.92;;;;;;;16.89;38.88;100261.91;5078088;28;20144;-73
2023/04/22 08:20:20;;;;;;;2.75;1.80;;;;;;;16.95;38.39;100250.97;5077680;28;20120;-71
2023/04/22 08:22:55;;;;;;;3.38;1.80;;;;;;;17.06;38.46;100259.84;5070968;28;20055;-71
2023/04/22 08:25:23;;;;;;;3.72;2.20;;;;;;;17.12;38.39;100251.66;5079982;28;20042;-72
2023/04/22 08:27:51;;;;;;;2.78;1.60;;;;;;;17.19;38.08;100255.34;5081022;28;20105;-72
2023/04/22 08:30:20;;;;;;;2.50;1.70;;;;;;;17.28;38.21;100234.84;5082287;28;20396;-73
2023/04/22 08:32:48;;;;;;;3.65;2.10;;;;;;;17.35;38.34;100237.69;5075157;28;20083;-72
2023/04/22 08:35:16;;;;;;;3.83;1.92;;;;;;;17.44;38.00;100235.66;5076695;28;20048;-72
2023/04/22 08:37:44;;;;;;;3.70;1.95;;;;;;;17.49;37.49;100245.09;5082656;28;20414;-72
2023/04/22 08:40:13;;;;;;;4.45;2.00;;;;;;;17.59;37.47;100255.84;5080565;28;20106;-71
2023/04/22 08:42:43;;;;;;;3.45;1.90;;;;;;;17.62;37.23;100242.50;5078524;28;20278;-71
2023/04/22 08:45:13;;;;;;;2.83;1.92;;;;;;;17.68;36.72;100238.94;5079676;28;20465;-71
2023/04/22 08:47:42;;;;;;;3.25;1.63;;;;;;;17.71;36.69;100243.25;5075973;28;20052;-72
2023/04/22 08:50:11;;;;;;;3.10;1.80;;;;;;;17.76;36.49;100240.75;5074886;28;20079;-72
2023/04/22 08:52:39;;;;;;;2.67;1.85;;;;;;;17.77;36.50;100246.09;5075148;28;20086;-72
2023/04/22 08:55:08;;;;;;;2.95;1.92;;;;;;;17.82;36.56;100239.09;5080599;28;20070;-72
2023/04/22 08:57:39;;;;;;;3.10;1.90;;;;;;;17.85;36.02;100228.50;5074264;28;20636;-71
2023/04/22 09:00:08;;;;;;;4.05;2.15;;;;;;;17.87;36.35;100231.09;5077209;28;20041;-71
2023/04/22 09:02:38;;;;;;;2.97;1.85;;;;;;;17.91;36.14;100224.94;5073444;28;20040;-72
2023/04/22 09:05:08;;;;;;;3.10;1.80;;;;;;;17.96;36.28;100210.53;5072652;28;20111;-72
2023/04/22 09:07:38;;;;;;;3.22;1.90;;;;;;;18.02;36.27;100213.34;5079709;28;20060;-71
2023/04/22 09:10:07;;;;;;;3.33;1.85;;;;;;;18.08;36.35;100201.47;5070889;28;20044;-71
2023/04/22 09:12:38;;;;;;;2.40;1.70;;;;;;;18.16;35.87;100206.00;5069129;28;20547;-72
2023/04/22 09:15:08;;;;;;;2.85;1.73;;;;;;;18.24;36.03;100222.47;5072615;28;20101;-72
2023/04/22 09:17:37;;;;;;;2.30;1.75;;;;;;;18.31;35.80;100203.16;5080679;28;20537;-71
2023/04/22 09:20:07;;;;;;;2.17;1.60;;;;;;;18.41;35.76;100203.66;5070937;28;20036;-74
2023/04/22 09:22:40;;;;;;;3.15;1.80;;;;;;;18.50;34.93;100208.03;5075805;28;20044;-73
2023/04/22 09:25:15;;;;;;;2.65;1.60;;;;;;;18.60;34.46;100211.31;5077941;28;20572;-73
2023/04/22 09:27:48;;;;;;;3.88;2.05;;;;;;;18.70;34.60;100205.41;5079349;28;20048;-64
2023/04/22 09:30:18;;;;;;;2.33;1.50;;;;;;;18.77;35.44;100204.38;5075035;28;20070;-61
2023/04/22 09:32:54;;;;;;;3.10;1.73;;;;;;;18.88;34.39;100209.34;5076840;28;20033;-65
2023/04/22 09:35:29;;;;;;;3.25;1.80;;;;;;;18.96;33.98;100211.13;5076226;28;20141;-65
2023/04/22 09:37:58;;;;;;;3.30;1.92;;;;;;;19.02;35.00;100209.44;5074928;28;21204;-65
2023/04/22 09:40:27;;;;;;;3.10;1.70;;;;;;;19.09;34.47;100210.31;5075116;28;20051;-65
2023/04/22 09:42:58;;;;;;;3.58;2.15;;;;;;;19.13;33.95;100212.47;5072281;28;20135;-66
2023/04/22 09:45:31;;;;;;;3.38;2.03;;;;;;;19.17;33.68;100202.69;5073247;28;20697;-66
2023/04/22 09:48:10;;;;;;;3.65;2.05;;;;;;;19.18;33.98;100206.31;5081350;28;20253;-73
2023/04/22 09:50:39;;;;;;;2.80;1.88;;;;;;;19.23;34.14;100209.34;5078910;28;20213;-74
2023/04/22 09:53:10;;;;;;;2.90;1.80;;;;;;;19.27;34.09;100205.09;5075406;28;20119;-72
2023/04/22 09:55:41;;;;;;;2.83;1.80;;;;;;;19.33;33.75;100195.09;5073224;28;20123;-71
2023/04/22 09:58:11;;;;;;;3.28;1.80;;;;;;;19.39;33.92;100200.66;5073738;28;20526;-71
2023/04/22 10:00:42;;;;;;;3.00;1.80;;;;;;;19.46;33.96;100190.44;5069897;28;20094;-72
2023/04/22 10:03:10;;;;;;;3.00;1.80;;;;;;;19.51;34.00;100182.34;5074573;28;20033;-71
2023/04/22 10:05:39;;;;;;;3.78;2.00;;;;;;;19.59;33.86;100184.94;5075108;28;20420;-72
2023/04/22 10:08:09;;;;;;;2.08;1.60;;;;;;;19.70;33.75;100194.56;5069516;28;20132;-71
2023/04/22 10:10:38;;;;;;;3.17;1.60;;;;;;;19.78;33.72;100180.50;5071626;28;20040;-72
2023/04/22 10:13:06;;;;;;;2.60;1.63;;;;;;;19.86;33.44;100185.84;5067563;28;20043;-72
2023/04/22 10:15:39;;;;;;;2.78;1.70;;;;;;;19.95;32.65;100176.25;5067447;28;20715;-71
2023/04/22 10:18:10;;;;;;;2.65;1.58;;;;;;;20.02;33.32;100191.03;5077893;28;20428;-72
2023/04/22 10:20:42;;;;;;;3.78;1.80;;;;;;;20.11;33.42;100191.69;5075245;28;20050;-72
2023/04/22 10:23:14;;;;;;;3.25;1.70;;;;;;;20.19;33.19;100194.25;5068196;28;20067;-72
2023/04/22 10:25:42;;;;;;;;;;;;;;;19.95;34.00;100192.91;5080186;28;20329;-71
2023/04/22 10:28:13;;;;;;;2.63;1.60;;;;;;;20.31;33.57;100205.56;5079951;28;19920;-72
2023/04/22 10:30:42;;;;;;;2.45;1.70;;;;;;;20.46;32.85;100181.16;5077246;28;20048;-72
2023/04/22 10:33:38;;;;;;;3.03;1.70;;;;;;;20.56;32.35;100183.50;5077653;28;20035;-72
2023/04/22 10:36:15;;;;;;;3.30;1.67;;;;;;;20.66;32.20;100189.53;5071739;28;20407;-72
2023/04/22 10:39:17;;;;;;;2.53;1.50;;;;;;;20.74;31.70;100194.84;5072785;28;20135;-72
2023/04/22 10:41:52;;;;;;;2.65;1.70;;;;;;;20.82;31.52;100189.06;5074317;28;20058;-71
2023/04/22 10:44:21;;;;;;;2.70;1.70;;;;;;;20.87;31.96;100196.72;5073025;28;20403;-72
2023/04/22 10:46:58;;;;;;;2.72;1.60;;;;;;;20.94;30.83;100190.09;5074131;28;20414;-72
2023/04/22 10:49:30;;;;;;;3.15;1.70;;;;;;;20.98;31.44;100193.28;5079096;28;20487;-72
2023/04/22 10:52:00;;;;;;;3.08;1.80;;;;;;;20.99;31.46;100208.91;5070678;28;20048;-72
2023/04/22 10:54:56;;;;;;;2.35;1.60;;;;;;;21.03;30.90;100202.69;5082488;28;20073;-69
2023/04/22 10:57:35;;;;;;;2.45;1.65;;;;;;;21.08;30.48;100202.91;5070604;28;20048;-71
2023/04/22 11:00:21;;;;;;;2.70;1.60;;;;;;;21.11;30.47;100204.38;5074185;28;20106;-70
2023/04/22 11:02:54;;;;;;;3.47;1.67;;;;;;;21.13;30.31;100199.44;5084038;28;20102;-71
2023/04/22 11:05:25;;;;;;;3.20;1.95;;;;;;;21.16;30.82;100201.78;5082727;28;20036;-71
2023/04/22 11:07:55;;;;;;;3.05;1.70;;;;;;;21.21;30.80;100210.31;5082982;28;20503;-71
2023/04/22 11:10:42;;;;;;;2.70;1.58;;;;;;;21.23;30.13;100215.69;5078948;28;20403;-71
2023/04/22 11:13:13;;;;;;;2.65;1.63;;;;;;;21.28;30.32;100207.53;5081135;28;20052;-71
2023/04/22 11:15:43;;;;;;;3.47;1.73;;;;;;;21.32;30.33;100222.75;5079957;28;20049;-72
2023/04/22 11:18:15;;;;;;;2.47;1.55;;;;;;;21.37;29.88;100212.66;5080821;28;20040;-70
2023/04/22 11:20:43;;;;;;;3.75;1.95;;;;;;;21.35;30.09;100209.25;5074208;28;20052;-72
2023/04/22 11:23:10;;;;;;;2.63;1.55;;;;;;;21.40;29.87;100203.00;5081518;28;20047;-71
2023/04/22 11:25:38;;;;;;;2.55;1.55;;;;;;;21.42;29.98;100209.22;5073335;28;20408;-71
2023/04/22 11:28:06;;;;;;;3.63;1.85;;;;;;;21.43;29.67;100202.59;5077579;28;20069;-72
2023/04/22 11:30:34;;;;;;;2.90;1.80;;;;;;;21.43;29.71;100197.00;5072374;28;20048;-72
2023/04/22 11:33:02;;;;;;;2.80;1.88;;;;;;;21.42;29.67;100196.16;5070228;28;20445;-72
2023/04/22 11:35:33;;;;;;;2.80;1.70;;;;;;;21.44;29.71;100202.34;5070691;28;20036;-72
2023/04/22 11:38:03;;;;;;;3.97;1.98;;;;;;;21.43;29.48;100199.78;5078055;28;20041;-71